createdAt,value
2018-06-27T00:00:44.744Z,70.50
2018-06-27T00:03:12.914Z,70.90
2018-06-27T00:05:41.075Z,70.80
2018-06-27T00:08:09.247Z,71.80
2018-06-27T00:10:37.416Z,71.30
2018-06-27T00:13:05.581Z,70.90
2018-06-27T00:15:33.749Z,71.00
2018-06-27T00:18:01.942Z,71.10
2018-06-27T00:20:30.103Z,71.50
2018-06-27T00:22:58.373Z,72.00
2018-06-27T00:25:26.541Z,72.00
2018-06-27T00:27:54.752Z,72.70
2018-06-27T00:30:22.939Z,71.60
2018-06-27T00:32:51.116Z,71.40
2018-06-27T00:35:19.307Z,72.40
2018-06-27T00:37:47.725Z,71.50
2018-06-27T00:40:15.961Z,72.30
2018-06-27T00:42:44.141Z,72.40
2018-06-27T00:45:12.325Z,72.70
2018-06-27T00:47:40.495Z,72.30
2018-06-27T00:50:08.672Z,71.90
2018-06-27T00:52:36.847Z,72.50
2018-06-27T00:55:05.104Z,72.70
2018-06-27T00:57:33.276Z,71.70
2018-06-27T01:00:01.445Z,71.30
2018-06-27T01:02:29.617Z,71.30
2018-06-27T01:04:57.781Z,70.70
2018-06-27T01:07:25.939Z,71.00
2018-06-27T01:09:54.237Z,70.70
2018-06-27T01:12:22.450Z,70.10
2018-06-27T01:14:50.628Z,69.50
2018-06-27T01:17:18.808Z,69.90
2018-06-27T01:19:47.018Z,69.60
2018-06-27T01:22:15.203Z,70.30
2018-06-27T01:24:43.399Z,70.20
2018-06-27T01:27:11.587Z,70.00
2018-06-27T01:29:39.800Z,70.10
2018-06-27T01:32:07.993Z,69.60
2018-06-27T01:34:36.167Z,70.30
2018-06-27T01:37:04.392Z,70.40
2018-06-27T01:39:32.567Z,70.80
2018-06-27T01:42:00.758Z,70.40
2018-06-27T01:44:28.941Z,71.00
2018-06-27T01:46:57.129Z,70.30
2018-06-27T01:49:25.300Z,70.10
2018-06-27T01:51:53.496Z,70.80
2018-06-27T01:54:21.681Z,71.40
2018-06-27T01:56:49.910Z,69.80
2018-06-27T01:59:18.101Z,69.80
2018-06-27T02:01:46.284Z,68.50
2018-06-27T02:04:14.464Z,68.80
2018-06-27T02:06:42.652Z,68.70
2018-06-27T02:09:11.275Z,67.60
2018-06-27T02:11:39.760Z,67.50
2018-06-27T02:14:07.987Z,67.50
2018-06-27T02:16:36.182Z,67.20
2018-06-27T02:19:04.549Z,67.30
2018-06-27T02:21:32.725Z,67.20
2018-06-27T02:24:00.893Z,67.40
2018-06-27T02:26:29.067Z,67.30
2018-06-27T02:28:57.228Z,67.70
2018-06-27T02:31:25.400Z,68.10
2018-06-27T02:33:53.568Z,68.90
2018-06-27T02:36:21.728Z,68.50
2018-06-27T02:38:49.907Z,68.20
2018-06-27T02:41:18.089Z,68.40
2018-06-27T02:43:46.251Z,69.20
2018-06-27T02:46:14.404Z,69.20
2018-06-27T02:48:42.576Z,68.70
2018-06-27T02:51:10.748Z,70.10
2018-06-27T02:53:39.692Z,70.10
2018-06-27T02:56:10.578Z,69.90
2018-06-27T02:58:38.739Z,70.50
2018-06-27T03:01:07.002Z,71.30
2018-06-27T03:03:35.173Z,72.20
2018-06-27T03:06:03.332Z,70.80
2018-06-27T03:08:31.504Z,71.40
2018-06-27T03:10:59.660Z,72.60
2018-06-27T03:13:27.844Z,73.10
2018-06-27T03:15:57.749Z,73.30
2018-06-27T03:18:25.938Z,73.00
2018-06-27T03:20:54.103Z,74.00
2018-06-27T03:23:22.291Z,73.70
2018-06-27T03:25:50.493Z,74.00
2018-06-27T03:28:18.678Z,73.70
2018-06-27T03:30:46.864Z,74.30
2018-06-27T03:33:15.065Z,74.70
2018-06-27T03:35:43.257Z,74.40
2018-06-27T03:38:11.481Z,74.40
2018-06-27T03:40:39.708Z,74.60
2018-06-27T03:43:07.900Z,75.30
2018-06-27T03:45:36.085Z,76.20
2018-06-27T03:48:04.380Z,75.90
2018-06-27T03:50:32.597Z,75.60
2018-06-27T03:53:00.780Z,76.70
2018-06-27T03:55:28.961Z,76.40
2018-06-27T03:57:57.156Z,76.70
2018-06-27T04:00:25.361Z,76.70
2018-06-27T04:02:53.547Z,77.90
2018-06-27T04:05:21.735Z,77.70
2018-06-27T04:07:49.910Z,78.70
2018-06-27T04:10:18.098Z,78.30
2018-06-27T04:12:46.493Z,78.70
2018-06-27T04:15:14.491Z,79.00
2018-06-27T04:17:42.652Z,79.40
2018-06-27T04:20:10.896Z,78.40
2018-06-27T04:22:39.015Z,80.00
2018-06-27T04:25:07.192Z,78.70
2018-06-27T04:27:35.353Z,78.50
2018-06-27T04:30:04.005Z,78.50
2018-06-27T04:32:32.180Z,78.40
2018-06-27T04:35:00.851Z,78.40
2018-06-27T04:37:29.430Z,78.30
2018-06-27T04:39:57.997Z,79.50
2018-06-27T04:42:27.600Z,79.10
2018-06-27T04:44:55.813Z,78.40
2018-06-27T04:47:32.706Z,78.90
2018-06-27T04:50:01.733Z,79.30
2018-06-27T04:52:36.318Z,79.00
2018-06-27T04:55:04.694Z,79.50
2018-06-27T04:57:33.088Z,79.70
2018-06-27T05:00:01.485Z,79.40
2018-06-27T05:02:29.908Z,81.30
2018-06-27T05:04:58.190Z,81.10
2018-06-27T05:07:26.521Z,80.30
2018-06-27T05:09:54.775Z,80.10
2018-06-27T05:12:23.777Z,79.10
2018-06-27T05:14:52.187Z,79.90
2018-06-27T05:17:20.678Z,78.70
2018-06-27T05:19:49.218Z,79.20
2018-06-27T05:22:17.851Z,79.90
2018-06-27T05:24:46.315Z,80.10
2018-06-27T05:27:18.695Z,78.10
2018-06-27T05:30:00.957Z,78.30
2018-06-27T05:35:18.277Z,79.10
2018-06-27T05:37:57.128Z,78.50
2018-06-27T05:40:25.310Z,78.60
2018-06-27T05:42:53.549Z,78.80
2018-06-27T05:45:22.002Z,78.60
2018-06-27T05:47:50.207Z,77.90
2018-06-27T05:50:19.027Z,78.10
2018-06-27T05:52:47.297Z,77.50
2018-06-27T05:55:15.656Z,78.30
2018-06-27T05:57:43.960Z,76.90
2018-06-27T06:00:13.329Z,75.70
2018-06-27T06:02:41.742Z,75.20
2018-06-27T06:05:10.463Z,75.60
2018-06-27T06:07:39.027Z,75.80
2018-06-27T06:10:07.482Z,76.30
2018-06-27T06:12:35.684Z,76.40
2018-06-27T06:15:05.054Z,76.10
2018-06-27T06:17:33.336Z,76.00
2018-06-27T06:20:01.557Z,74.80
2018-06-27T06:22:29.778Z,75.10
2018-06-27T06:24:57.995Z,74.30
2018-06-27T06:30:00.841Z,69.10
2018-06-27T06:32:29.152Z,66.40
2018-06-27T06:34:57.307Z,66.50
2018-06-27T06:37:25.508Z,64.00
2018-06-27T06:39:53.700Z,62.30
2018-06-27T06:42:21.961Z,60.30
2018-06-27T06:44:50.169Z,59.60
2018-06-27T06:47:18.404Z,57.50
2018-06-27T06:49:46.603Z,57.10
2018-06-27T06:52:14.881Z,56.20
2018-06-27T06:54:43.009Z,56.30
2018-06-27T06:57:11.224Z,55.50
2018-06-27T06:59:39.428Z,56.00
2018-06-27T07:02:08.035Z,55.70
2018-06-27T07:04:36.234Z,54.90
2018-06-27T07:07:04.428Z,55.60
2018-06-27T07:09:32.646Z,55.10
2018-06-27T07:12:00.850Z,55.60
2018-06-27T07:14:29.059Z,55.10
2018-06-27T07:16:57.291Z,55.40
2018-06-27T07:19:25.514Z,56.20
2018-06-27T07:21:53.714Z,55.70
2018-06-27T07:24:21.910Z,56.00
2018-06-27T07:26:50.161Z,56.10
2018-06-27T07:29:18.324Z,56.00
2018-06-27T07:31:46.518Z,56.10
2018-06-27T07:34:14.734Z,57.00
2018-06-27T07:36:42.923Z,56.40
2018-06-27T07:39:11.944Z,57.30
2018-06-27T07:41:40.324Z,57.10
2018-06-27T07:44:08.596Z,57.50
2018-06-27T07:46:36.814Z,58.00
2018-06-27T07:49:05.071Z,57.40
2018-06-27T07:51:33.286Z,56.90
2018-06-27T07:54:01.500Z,57.10
2018-06-27T07:56:29.687Z,57.60
2018-06-27T07:58:57.895Z,56.30
2018-06-27T08:01:26.109Z,55.60
2018-06-27T08:03:54.344Z,54.90
2018-06-27T08:06:22.517Z,53.90
2018-06-27T08:08:50.724Z,54.20
2018-06-27T08:11:18.917Z,52.30
2018-06-27T08:16:21.740Z,52.00
2018-06-27T08:18:49.960Z,51.60
2018-06-27T08:21:18.187Z,49.70
2018-06-27T08:23:46.396Z,48.10
2018-06-27T08:26:14.683Z,47.70
2018-06-27T08:28:42.809Z,48.20
2018-06-27T08:31:11.008Z,46.80
2018-06-27T08:33:39.228Z,45.00
2018-06-27T08:36:07.425Z,43.30
2018-06-27T08:38:35.637Z,44.70
2018-06-27T08:41:03.831Z,43.70
2018-06-27T08:43:32.036Z,43.50
2018-06-27T08:46:00.231Z,44.00
2018-06-27T08:48:28.419Z,42.10
2018-06-27T08:50:56.628Z,41.80
2018-06-27T08:53:24.832Z,37.70
2018-06-27T08:55:53.044Z,35.60
2018-06-27T08:58:21.241Z,37.30
2018-06-27T09:00:49.444Z,36.90
2018-06-27T09:03:17.644Z,34.70
2018-06-27T09:05:45.873Z,32.90
2018-06-27T09:08:14.084Z,30.90
2018-06-27T09:10:42.284Z,30.60
2018-06-27T09:13:10.609Z,30.40
2018-06-27T09:15:38.823Z,31.90
2018-06-27T09:18:07.009Z,30.70
2018-06-27T09:20:35.204Z,29.90
2018-06-27T09:23:03.409Z,31.60
2018-06-27T09:25:31.603Z,31.90
2018-06-27T09:27:59.780Z,31.90
2018-06-27T09:30:27.980Z,31.00
2018-06-27T09:32:56.176Z,32.80
2018-06-27T09:35:24.359Z,32.10
2018-06-27T09:37:52.558Z,30.10
2018-06-27T09:40:20.746Z,31.40
2018-06-27T09:42:48.916Z,31.80
2018-06-27T09:45:17.109Z,32.80
2018-06-27T09:50:13.225Z,32.20
2018-06-27T09:52:41.393Z,30.10
2018-06-27T09:55:09.581Z,32.10
2018-06-27T09:57:37.755Z,30.10
2018-06-27T10:00:05.939Z,31.70
2018-06-27T10:02:34.106Z,30.00
2018-06-27T10:05:02.327Z,31.40
2018-06-27T10:07:30.509Z,30.50
2018-06-27T10:09:58.706Z,31.90
2018-06-27T10:12:26.905Z,32.10
2018-06-27T10:14:55.112Z,31.10
2018-06-27T10:17:23.315Z,32.20
2018-06-27T10:19:51.550Z,32.00
2018-06-27T10:22:19.818Z,33.00
2018-06-27T10:24:48.022Z,30.60
2018-06-27T10:27:16.225Z,31.10
2018-06-27T10:29:44.428Z,31.90
2018-06-27T10:32:13.652Z,31.70
2018-06-27T10:34:41.864Z,31.20
2018-06-27T10:37:10.065Z,32.20
2018-06-27T10:39:38.265Z,32.50
2018-06-27T10:42:06.489Z,32.20
2018-06-27T10:44:34.761Z,32.70
2018-06-27T10:47:02.922Z,32.20
2018-06-27T10:49:31.117Z,31.70
2018-06-27T10:51:59.325Z,31.00
2018-06-27T10:54:27.517Z,30.90
2018-06-27T10:56:55.740Z,31.70
2018-06-27T10:59:23.924Z,31.20
2018-06-27T11:01:52.144Z,31.10
2018-06-27T11:04:20.342Z,30.70
2018-06-27T11:06:48.552Z,30.50
2018-06-27T11:09:18.472Z,30.30
2018-06-27T11:11:47.325Z,32.20
2018-06-27T11:14:16.330Z,33.40
2018-06-27T11:16:46.834Z,33.50
2018-06-27T11:19:15.288Z,33.30
2018-06-27T11:21:43.541Z,32.90
2018-06-27T11:24:12.000Z,32.70
2018-06-27T11:26:40.245Z,34.40
2018-06-27T11:29:08.434Z,34.80
2018-06-27T11:31:36.660Z,35.40
2018-06-27T11:34:04.854Z,34.80
2018-06-27T11:36:33.270Z,34.50
2018-06-27T11:39:01.453Z,35.50
2018-06-27T11:41:29.630Z,34.90
2018-06-27T11:43:58.212Z,35.30
2018-06-27T11:46:26.481Z,36.10
2018-06-27T11:48:54.688Z,34.80
2018-06-27T11:57:20.841Z,34.60
2018-06-27T11:59:49.065Z,33.80
2018-06-27T12:02:17.261Z,36.20
2018-06-27T12:04:46.786Z,35.40
2018-06-27T12:07:15.892Z,36.90
2018-06-27T12:09:44.322Z,36.70
2018-06-27T12:12:12.568Z,35.30
2018-06-27T12:14:40.763Z,34.80
2018-06-27T12:17:08.942Z,35.80
2018-06-27T12:19:37.124Z,36.80
2018-06-27T12:22:05.331Z,36.50
2018-06-27T12:24:33.518Z,36.00
2018-06-27T12:27:01.693Z,36.00
2018-06-27T12:29:29.896Z,36.20
2018-06-27T12:31:58.813Z,36.80
2018-06-27T12:34:27.087Z,35.30
2018-06-27T12:36:55.553Z,37.10
2018-06-27T12:39:24.226Z,35.90
2018-06-27T12:41:52.562Z,35.70
2018-06-27T12:44:20.938Z,37.00
2018-06-27T12:46:49.064Z,39.70
2018-06-27T12:49:17.253Z,40.80
2018-06-27T12:51:45.454Z,40.40
2018-06-27T12:54:13.672Z,37.80
2018-06-27T12:56:41.922Z,39.40
2018-06-27T12:59:10.153Z,40.50
2018-06-27T13:01:42.397Z,40.60
2018-06-27T13:04:10.722Z,39.40
2018-06-27T13:09:21.115Z,39.20
2018-06-27T13:11:52.279Z,39.40
2018-06-27T13:14:20.474Z,38.70
2018-06-27T13:16:48.711Z,38.60
2018-06-27T13:19:16.971Z,38.40
2018-06-27T13:21:45.237Z,38.70
2018-06-27T13:24:13.500Z,38.90
2018-06-27T13:26:41.872Z,39.60
2018-06-27T13:29:10.149Z,40.40
2018-06-27T13:31:38.394Z,41.60
2018-06-27T13:34:06.821Z,41.00
2018-06-27T13:36:35.143Z,41.60
2018-06-27T13:39:03.839Z,42.10
2018-06-27T13:41:32.107Z,41.80
2018-06-27T13:44:00.450Z,42.10
2018-06-27T13:46:28.776Z,42.60
2018-06-27T13:48:57.088Z,43.20
2018-06-27T13:51:25.364Z,43.40
2018-06-27T13:53:53.609Z,43.60
2018-06-27T13:56:22.136Z,44.20
2018-06-27T13:58:50.421Z,44.50
2018-06-27T14:01:21.255Z,44.90
2018-06-27T14:03:49.625Z,45.00
2018-06-27T14:06:18.033Z,44.90
2018-06-27T14:08:46.243Z,45.00
2018-06-27T14:11:14.576Z,45.10
2018-06-27T14:13:42.799Z,44.10
2018-06-27T14:16:11.151Z,44.30
2018-06-27T14:18:39.473Z,44.60
2018-06-27T14:21:07.709Z,45.00
2018-06-27T14:23:36.395Z,44.70
2018-06-27T14:26:05.296Z,44.30
2018-06-27T14:28:33.585Z,44.70
2018-06-27T14:31:02.127Z,44.70
2018-06-27T14:33:30.513Z,44.60
2018-06-27T14:35:59.075Z,44.20
2018-06-27T14:38:27.400Z,43.80
2018-06-27T14:40:55.738Z,44.30
2018-06-27T14:43:27.711Z,43.90
2018-06-27T14:45:56.128Z,44.70
2018-06-27T14:48:24.453Z,44.40
2018-06-27T14:50:52.847Z,44.50
2018-06-27T14:53:21.175Z,45.20
2018-06-27T14:55:49.569Z,45.10
2018-06-27T14:58:21.617Z,45.20
2018-06-27T15:01:30.282Z,45.40
2018-06-27T15:03:58.701Z,45.70
2018-06-27T15:06:27.166Z,45.60
2018-06-27T15:08:57.873Z,45.30
2018-06-27T15:11:26.316Z,45.20
2018-06-27T15:13:54.737Z,45.60
2018-06-27T15:16:23.188Z,45.10
2018-06-27T15:18:51.606Z,45.90
2018-06-27T15:21:26.794Z,45.00
2018-06-27T15:23:55.227Z,45.60
2018-06-27T15:26:28.014Z,45.20
2018-06-27T15:28:56.434Z,45.10
2018-06-27T15:31:25.090Z,45.00
2018-06-27T15:33:53.541Z,45.30
2018-06-27T15:36:23.035Z,42.60
2018-06-27T15:38:51.491Z,43.50
2018-06-27T15:41:19.812Z,43.80
2018-06-27T15:43:48.431Z,45.10
2018-06-27T15:46:16.784Z,45.10
2018-06-27T15:48:45.164Z,45.50
2018-06-27T15:51:13.387Z,44.40
2018-06-27T15:53:43.508Z,43.50
2018-06-27T15:56:11.773Z,46.60
2018-06-27T15:58:40.042Z,43.10
2018-06-27T16:01:23.260Z,42.90
2018-06-27T16:03:51.556Z,41.10
2018-06-27T16:06:19.749Z,40.50
2018-06-27T16:08:47.948Z,41.10
2018-06-27T16:11:16.233Z,39.60
2018-06-27T16:13:44.376Z,39.90
2018-06-27T16:16:12.635Z,39.90
2018-06-27T16:18:40.859Z,39.20
2018-06-27T16:23:36.996Z,38.70
2018-06-27T16:26:05.285Z,37.10
2018-06-27T16:28:33.464Z,37.20
2018-06-27T16:31:01.632Z,37.80
2018-06-27T16:33:29.818Z,38.10
2018-06-27T16:36:00.063Z,39.40
2018-06-27T16:38:28.915Z,40.50
2018-06-27T16:40:57.295Z,40.30
2018-06-27T16:43:25.527Z,40.60
2018-06-27T16:45:53.693Z,39.90
2018-06-27T16:48:21.896Z,40.60
2018-06-27T16:50:50.103Z,40.10
2018-06-27T16:53:18.285Z,37.70
2018-06-27T16:55:46.472Z,37.30
2018-06-27T16:58:14.652Z,38.50
2018-06-27T17:00:49.507Z,37.50
2018-06-27T17:03:17.668Z,38.60
2018-06-27T17:05:45.864Z,39.20
2018-06-27T17:08:14.073Z,38.00
2018-06-27T17:10:42.310Z,38.40
2018-06-27T17:13:11.027Z,38.90
2018-06-27T17:15:39.205Z,40.90
2018-06-27T17:18:07.603Z,38.90
2018-06-27T17:20:36.729Z,37.80
2018-06-27T17:23:05.244Z,38.40
2018-06-27T17:25:33.485Z,38.30
2018-06-27T17:28:01.713Z,38.60
2018-06-27T17:30:32.352Z,39.50
2018-06-27T17:33:00.536Z,40.50
2018-06-27T17:35:28.749Z,41.30
2018-06-27T17:37:56.940Z,40.60
2018-06-27T17:40:25.155Z,40.40
2018-06-27T17:42:53.531Z,41.80
2018-06-27T17:45:22.233Z,40.80
2018-06-27T17:47:51.528Z,40.50
2018-06-27T17:50:24.307Z,40.60
2018-06-27T17:52:54.592Z,41.00
2018-06-27T17:55:22.945Z,41.30
2018-06-27T17:57:51.541Z,41.10
2018-06-27T18:00:19.889Z,41.60
2018-06-27T18:02:48.279Z,41.90
2018-06-27T18:05:16.721Z,40.80
2018-06-27T18:07:51.454Z,41.70
2018-06-27T18:10:20.115Z,41.80
2018-06-27T18:12:48.569Z,41.50
2018-06-27T18:15:16.974Z,41.90
2018-06-27T18:20:13.492Z,43.30
2018-06-27T18:22:41.886Z,43.00
2018-06-27T18:25:10.392Z,42.70
2018-06-27T18:27:38.788Z,39.10
2018-06-27T18:30:07.936Z,39.10
2018-06-27T18:32:36.416Z,37.90
2018-06-27T18:35:04.876Z,36.50
2018-06-27T18:37:47.136Z,33.60
2018-06-27T18:40:15.544Z,33.10
2018-06-27T18:42:43.909Z,32.90
2018-06-27T18:45:13.939Z,34.00
2018-06-27T18:47:42.434Z,33.10
2018-06-27T18:50:10.922Z,32.70
2018-06-27T18:52:39.254Z,33.10
2018-06-27T18:55:11.365Z,33.00
2018-06-27T18:57:39.690Z,33.00
2018-06-27T19:00:09.681Z,33.20
2018-06-27T19:02:38.093Z,33.40
2018-06-27T19:05:06.742Z,33.90
2018-06-27T19:07:35.230Z,33.90
2018-06-27T19:10:21.754Z,34.30
2018-06-27T19:18:54.540Z,34.10
2018-06-27T19:21:22.792Z,35.50
2018-06-27T19:23:51.058Z,36.30
2018-06-27T19:26:19.408Z,36.20
2018-06-27T19:28:47.727Z,36.10
2018-06-27T19:31:16.033Z,36.00
2018-06-27T19:33:44.470Z,36.40
2018-06-27T19:36:12.826Z,38.40
2018-06-27T19:41:15.933Z,40.10
2018-06-27T19:43:44.855Z,39.40
2018-06-27T19:46:16.695Z,37.70
2018-06-27T19:49:00.964Z,37.30
2018-06-27T19:51:29.395Z,37.40
2018-06-27T19:53:57.705Z,37.20
2018-06-27T19:56:25.976Z,38.60
2018-06-27T19:58:55.282Z,39.30
2018-06-27T20:01:23.659Z,39.80
2018-06-27T20:03:52.155Z,39.50
2018-06-27T20:06:21.728Z,40.20
2018-06-27T20:08:50.011Z,39.70
2018-06-27T20:11:30.581Z,41.20
2018-06-27T20:13:58.973Z,40.00
2018-06-27T20:16:33.726Z,41.10
2018-06-27T20:19:02.439Z,42.10
2018-06-27T20:21:30.901Z,42.10
2018-06-27T20:23:59.279Z,42.60
2018-06-27T20:26:27.807Z,43.60
2018-06-27T20:28:56.273Z,43.90
2018-06-27T20:31:24.556Z,43.40
2018-06-27T20:36:52.024Z,44.40
2018-06-27T20:39:29.879Z,44.70
2018-06-27T20:41:58.371Z,43.90
2018-06-27T20:44:26.966Z,43.60
2018-06-27T20:46:55.648Z,43.60
2018-06-27T20:49:24.150Z,42.90
2018-06-27T20:51:52.835Z,44.30
2018-06-27T20:54:21.311Z,45.80
2018-06-27T20:56:49.723Z,47.00
2018-06-27T21:01:48.750Z,48.70
2018-06-27T21:04:17.398Z,49.50
2018-06-27T21:06:45.760Z,49.70
2018-06-27T21:09:14.137Z,50.20
2018-06-27T21:11:42.413Z,50.90
2018-06-27T21:14:11.475Z,52.00
2018-06-27T21:16:39.795Z,51.70
2018-06-27T21:19:08.118Z,51.70
2018-06-27T21:21:36.486Z,52.30
2018-06-27T21:24:04.857Z,51.30
2018-06-27T21:26:33.132Z,50.10
2018-06-27T21:31:36.055Z,54.10
2018-06-27T21:34:04.416Z,53.20
2018-06-27T21:36:32.688Z,54.40
2018-06-27T21:39:01.030Z,52.00
2018-06-27T21:41:29.386Z,51.30
2018-06-27T21:43:57.841Z,51.60
2018-06-27T21:46:26.137Z,51.00
2018-06-27T21:48:54.629Z,50.70
2018-06-27T21:51:22.902Z,51.10
2018-06-27T21:53:51.247Z,51.70
2018-06-27T21:56:19.540Z,51.00
2018-06-27T21:58:47.840Z,51.00
2018-06-27T22:01:16.187Z,51.20
2018-06-27T22:03:44.534Z,51.30
2018-06-27T22:06:12.942Z,51.20
2018-06-27T22:08:41.259Z,52.30
2018-06-27T22:11:09.602Z,51.40
2018-06-27T22:13:38.065Z,51.50
2018-06-27T22:16:06.450Z,50.70
2018-06-27T22:18:34.760Z,51.10
2018-06-27T22:21:03.141Z,50.40
2018-06-27T22:23:31.439Z,51.30
2018-06-27T22:25:59.762Z,49.90
2018-06-27T22:28:28.090Z,49.60
2018-06-27T22:30:56.484Z,49.50
2018-06-27T22:33:24.858Z,48.70
2018-06-27T22:35:53.209Z,48.90
2018-06-27T22:38:21.670Z,48.30
2018-06-27T22:43:18.186Z,48.60
2018-06-27T22:45:46.582Z,48.40
2018-06-27T22:48:15.040Z,47.90
2018-06-27T22:50:44.614Z,47.90
2018-06-27T22:53:13.100Z,47.40
2018-06-27T22:55:41.532Z,47.40
2018-06-27T22:58:09.941Z,47.80
2018-06-27T23:00:38.506Z,47.80
2018-06-27T23:03:06.999Z,47.90
2018-06-27T23:05:35.465Z,48.30
2018-06-27T23:08:04.005Z,47.70
2018-06-27T23:10:32.554Z,47.60
2018-06-27T23:13:01.088Z,47.50
2018-06-27T23:15:29.798Z,47.50
2018-06-27T23:17:59.313Z,47.70
2018-06-27T23:20:27.919Z,47.70
2018-06-27T23:22:56.434Z,47.60
2018-06-27T23:25:24.954Z,47.70
2018-06-27T23:27:53.422Z,47.50
2018-06-27T23:30:21.966Z,47.40
2018-06-27T23:32:51.782Z,47.70
2018-06-27T23:35:20.262Z,47.00
2018-06-27T23:37:48.688Z,46.80
2018-06-27T23:40:17.192Z,47.00
2018-06-27T23:42:47.017Z,46.90
2018-06-27T23:45:15.593Z,47.00
2018-06-27T23:47:45.438Z,47.10
2018-06-27T23:50:13.840Z,47.30
2018-06-27T23:52:42.320Z,47.30
2018-06-27T23:55:12.712Z,47.40
2018-06-27T23:57:41.206Z,46.80
